sensor_id;sensor_type;location;lat;lon;timestamp;P1;durP1;ratioP1;P2;durP2;ratioP2
59014;SDS011;44799;53.382;14.666;2022-09-09T00:01:46;4.82;;;3.25;;
59014;SDS011;44799;53.382;14.666;2022-09-09T00:04:34;4.32;;;3.10;;
59014;SDS011;44799;53.382;14.666;2022-09-09T00:09:52;2.63;;;2.42;;
59014;SDS011;44799;53.382;14.666;2022-09-09T00:15:20;3.72;;;2.50;;
59014;SDS011;44799;53.382;14.666;2022-09-09T00:23:14;2.75;;;1.80;;
59014;SDS011;44799;53.382;14.666;2022-09-09T00:25:52;2.80;;;1.67;;
59014;SDS011;44799;53.382;14.666;2022-09-09T00:28:52;2.85;;;1.70;;
59014;SDS011;44799;53.382;14.666;2022-09-09T00:31:34;4.13;;;2.08;;
59014;SDS011;44799;53.382;14.666;2022-09-09T00:34:12;3.47;;;2.22;;
59014;SDS011;44799;53.382;14.666;2022-09-09T00:36:44;3.85;;;2.83;;
59014;SDS011;44799;53.382;14.666;2022-09-09T00:39:23;3.15;;;2.72;;
59014;SDS011;44799;53.382;14.666;2022-09-09T00:42:16;3.65;;;2.65;;
59014;SDS011;44799;53.382;14.666;2022-09-09T00:47:25;4.22;;;2.88;;
59014;SDS011;44799;53.382;14.666;2022-09-09T00:50:46;3.92;;;2.30;;
59014;SDS011;44799;53.382;14.666;2022-09-09T00:56:23;3.92;;;2.67;;
59014;SDS011;44799;53.382;14.666;2022-09-09T00:58:56;4.07;;;2.80;;
59014;SDS011;44799;53.382;14.666;2022-09-09T01:01:33;4.25;;;2.78;;
59014;SDS011;44799;53.382;14.666;2022-09-09T01:04:00;4.13;;;2.83;;
59014;SDS011;44799;53.382;14.666;2022-09-09T01:06:35;4.40;;;2.95;;
59014;SDS011;44799;53.382;14.666;2022-09-09T01:14:38;5.75;;;3.05;;
59014;SDS011;44799;53.382;14.666;2022-09-09T01:22:33;4.47;;;3.17;;
59014;SDS011;44799;53.382;14.666;2022-09-09T01:27:46;4.22;;;2.95;;
59014;SDS011;44799;53.382;14.666;2022-09-09T01:30:14;3.63;;;2.65;;
59014;SDS011;44799;53.382;14.666;2022-09-09T01:32:49;5.05;;;3.17;;
59014;SDS011;44799;53.382;14.666;2022-09-09T01:38:02;3.85;;;2.78;;
59014;SDS011;44799;53.382;14.666;2022-09-09T01:40:28;3.97;;;3.15;;
59014;SDS011;44799;53.382;14.666;2022-09-09T01:42:54;5.18;;;3.35;;
59014;SDS011;44799;53.382;14.666;2022-09-09T01:45:20;4.82;;;3.10;;
59014;SDS011;44799;53.382;14.666;2022-09-09T01:47:47;5.10;;;3.17;;
59014;SDS011;44799;53.382;14.666;2022-09-09T01:50:14;4.22;;;3.22;;
59014;SDS011;44799;53.382;14.666;2022-09-09T01:52:41;5.43;;;3.55;;
59014;SDS011;44799;53.382;14.666;2022-09-09T01:55:10;4.50;;;3.45;;
59014;SDS011;44799;53.382;14.666;2022-09-09T01:57:39;5.97;;;3.55;;
59014;SDS011;44799;53.382;14.666;2022-09-09T02:00:14;5.05;;;3.40;;
59014;SDS011;44799;53.382;14.666;2022-09-09T02:08:00;5.53;;;3.22;;
59014;SDS011;44799;53.382;14.666;2022-09-09T02:10:33;5.97;;;4.15;;
59014;SDS011;44799;53.382;14.666;2022-09-09T02:13:28;5.00;;;2.92;;
59014;SDS011;44799;53.382;14.666;2022-09-09T02:15:59;5.43;;;3.45;;
59014;SDS011;44799;53.382;14.666;2022-09-09T02:21:07;6.03;;;3.95;;
59014;SDS011;44799;53.382;14.666;2022-09-09T02:23:37;6.93;;;4.38;;
59014;SDS011;44799;53.382;14.666;2022-09-09T02:26:04;9.85;;;4.03;;
59014;SDS011;44799;53.382;14.666;2022-09-09T02:28:32;5.50;;;3.70;;
59014;SDS011;44799;53.382;14.666;2022-09-09T02:31:02;5.68;;;4.10;;
59014;SDS011;44799;53.382;14.666;2022-09-09T02:33:34;8.40;;;4.60;;
59014;SDS011;44799;53.382;14.666;2022-09-09T02:36:07;7.40;;;4.40;;
59014;SDS011;44799;53.382;14.666;2022-09-09T02:38:37;6.20;;;3.83;;
59014;SDS011;44799;53.382;14.666;2022-09-09T02:41:10;7.10;;;4.55;;
59014;SDS011;44799;53.382;14.666;2022-09-09T02:43:36;6.40;;;4.05;;
59014;SDS011;44799;53.382;14.666;2022-09-09T02:51:46;7.15;;;4.38;;
59014;SDS011;44799;53.382;14.666;2022-09-09T02:54:30;6.80;;;4.18;;
59014;SDS011;44799;53.382;14.666;2022-09-09T02:57:01;6.95;;;4.60;;
59014;SDS011;44799;53.382;14.666;2022-09-09T02:59:28;5.90;;;4.50;;
59014;SDS011;44799;53.382;14.666;2022-09-09T03:01:55;7.10;;;4.38;;
59014;SDS011;44799;53.382;14.666;2022-09-09T03:04:21;9.38;;;4.60;;
59014;SDS011;44799;53.382;14.666;2022-09-09T03:06:49;8.38;;;4.72;;
59014;SDS011;44799;53.382;14.666;2022-09-09T03:09:15;9.45;;;5.43;;
59014;SDS011;44799;53.382;14.666;2022-09-09T03:11:41;6.55;;;4.72;;
59014;SDS011;44799;53.382;14.666;2022-09-09T03:14:07;7.25;;;4.90;;
59014;SDS011;44799;53.382;14.666;2022-09-09T03:16:33;6.57;;;4.63;;
59014;SDS011;44799;53.382;14.666;2022-09-09T03:19:00;7.80;;;5.30;;
59014;SDS011;44799;53.382;14.666;2022-09-09T03:21:26;6.05;;;4.90;;
59014;SDS011;44799;53.382;14.666;2022-09-09T03:23:52;7.63;;;4.70;;
59014;SDS011;44799;53.382;14.666;2022-09-09T03:26:18;8.38;;;5.00;;
59014;SDS011;44799;53.382;14.666;2022-09-09T03:28:44;6.72;;;4.88;;
59014;SDS011;44799;53.382;14.666;2022-09-09T03:31:10;7.15;;;5.35;;
59014;SDS011;44799;53.382;14.666;2022-09-09T03:33:36;6.32;;;4.22;;
59014;SDS011;44799;53.382;14.666;2022-09-09T03:36:03;9.48;;;5.63;;
59014;SDS011;44799;53.382;14.666;2022-09-09T03:38:29;8.90;;;5.22;;
59014;SDS011;44799;53.382;14.666;2022-09-09T03:40:56;5.80;;;4.13;;
59014;SDS011;44799;53.382;14.666;2022-09-09T03:43:25;9.98;;;5.40;;
59014;SDS011;44799;53.382;14.666;2022-09-09T03:45:53;6.60;;;4.68;;
59014;SDS011;44799;53.382;14.666;2022-09-09T03:48:22;6.03;;;4.32;;
59014;SDS011;44799;53.382;14.666;2022-09-09T03:50:50;8.07;;;5.70;;
59014;SDS011;44799;53.382;14.666;2022-09-09T03:53:17;7.63;;;5.22;;
59014;SDS011;44799;53.382;14.666;2022-09-09T03:55:45;8.60;;;4.78;;
59014;SDS011;44799;53.382;14.666;2022-09-09T03:58:12;6.60;;;5.10;;
59014;SDS011;44799;53.382;14.666;2022-09-09T04:00:39;7.43;;;4.90;;
59014;SDS011;44799;53.382;14.666;2022-09-09T04:03:10;8.25;;;5.15;;
59014;SDS011;44799;53.382;14.666;2022-09-09T04:05:36;6.15;;;4.43;;
59014;SDS011;44799;53.382;14.666;2022-09-09T04:08:07;9.02;;;5.13;;
59014;SDS011;44799;53.382;14.666;2022-09-09T04:10:33;7.70;;;5.28;;
59014;SDS011;44799;53.382;14.666;2022-09-09T04:13:02;8.10;;;5.05;;
59014;SDS011;44799;53.382;14.666;2022-09-09T04:15:29;7.70;;;5.07;;
59014;SDS011;44799;53.382;14.666;2022-09-09T04:17:56;8.23;;;5.22;;
59014;SDS011;44799;53.382;14.666;2022-09-09T04:20:22;7.68;;;4.95;;
59014;SDS011;44799;53.382;14.666;2022-09-09T04:22:48;7.90;;;4.68;;
59014;SDS011;44799;53.382;14.666;2022-09-09T04:25:14;7.93;;;5.05;;
59014;SDS011;44799;53.382;14.666;2022-09-09T04:27:40;10.55;;;5.38;;
59014;SDS011;44799;53.382;14.666;2022-09-09T04:30:07;8.48;;;5.50;;
59014;SDS011;44799;53.382;14.666;2022-09-09T04:32:34;9.77;;;5.40;;
59014;SDS011;44799;53.382;14.666;2022-09-09T04:35:00;6.90;;;4.18;;
59014;SDS011;44799;53.382;14.666;2022-09-09T04:37:26;7.30;;;4.43;;
59014;SDS011;44799;53.382;14.666;2022-09-09T04:39:52;7.82;;;4.93;;
59014;SDS011;44799;53.382;14.666;2022-09-09T04:42:18;9.15;;;4.80;;
59014;SDS011;44799;53.382;14.666;2022-09-09T04:44:44;10.90;;;5.25;;
59014;SDS011;44799;53.382;14.666;2022-09-09T04:47:10;8.23;;;5.40;;
59014;SDS011;44799;53.382;14.666;2022-09-09T04:49:36;9.55;;;5.05;;
59014;SDS011;44799;53.382;14.666;2022-09-09T04:52:03;9.65;;;6.13;;
59014;SDS011;44799;53.382;14.666;2022-09-09T04:54:29;9.77;;;5.93;;
59014;SDS011;44799;53.382;14.666;2022-09-09T04:56:55;12.20;;;6.00;;
59014;SDS011;44799;53.382;14.666;2022-09-09T04:59:21;11.40;;;6.25;;
59014;SDS011;44799;53.382;14.666;2022-09-09T05:01:47;12.23;;;6.30;;
59014;SDS011;44799;53.382;14.666;2022-09-09T05:04:15;10.82;;;6.40;;
59014;SDS011;44799;53.382;14.666;2022-09-09T05:06:41;11.13;;;6.45;;
59014;SDS011;44799;53.382;14.666;2022-09-09T05:09:07;14.02;;;6.75;;
59014;SDS011;44799;53.382;14.666;2022-09-09T05:11:34;10.57;;;6.18;;
59014;SDS011;44799;53.382;14.666;2022-09-09T05:14:03;15.82;;;7.38;;
59014;SDS011;44799;53.382;14.666;2022-09-09T05:16:30;10.48;;;6.68;;
59014;SDS011;44799;53.382;14.666;2022-09-09T05:18:56;9.88;;;5.97;;
59014;SDS011;44799;53.382;14.666;2022-09-09T05:21:23;11.30;;;6.75;;
59014;SDS011;44799;53.382;14.666;2022-09-09T05:23:51;14.98;;;7.13;;
59014;SDS011;44799;53.382;14.666;2022-09-09T05:26:18;10.30;;;6.13;;
59014;SDS011;44799;53.382;14.666;2022-09-09T05:28:46;12.27;;;6.50;;
59014;SDS011;44799;53.382;14.666;2022-09-09T05:31:13;13.48;;;6.90;;
59014;SDS011;44799;53.382;14.666;2022-09-09T05:33:41;12.07;;;7.22;;
59014;SDS011;44799;53.382;14.666;2022-09-09T05:36:18;14.15;;;6.68;;
59014;SDS011;44799;53.382;14.666;2022-09-09T05:38:45;14.73;;;7.47;;
59014;SDS011;44799;53.382;14.666;2022-09-09T05:41:11;10.68;;;7.03;;
59014;SDS011;44799;53.382;14.666;2022-09-09T05:43:40;14.02;;;7.40;;
59014;SDS011;44799;53.382;14.666;2022-09-09T05:46:16;13.55;;;7.78;;
59014;SDS011;44799;53.382;14.666;2022-09-09T05:48:45;14.95;;;7.68;;
59014;SDS011;44799;53.382;14.666;2022-09-09T05:51:13;14.85;;;8.45;;
59014;SDS011;44799;53.382;14.666;2022-09-09T05:53:40;15.18;;;7.28;;
59014;SDS011;44799;53.382;14.666;2022-09-09T05:56:09;15.90;;;7.68;;
59014;SDS011;44799;53.382;14.666;2022-09-09T05:58:36;14.15;;;7.72;;
59014;SDS011;44799;53.382;14.666;2022-09-09T06:01:04;11.68;;;5.72;;
59014;SDS011;44799;53.382;14.666;2022-09-09T06:03:39;16.00;;;8.23;;
59014;SDS011;44799;53.382;14.666;2022-09-09T06:06:07;13.70;;;6.78;;
59014;SDS011;44799;53.382;14.666;2022-09-09T06:08:35;16.25;;;7.60;;
59014;SDS011;44799;53.382;14.666;2022-09-09T06:13:30;12.30;;;6.60;;
59014;SDS011;44799;53.382;14.666;2022-09-09T06:15:56;12.23;;;6.32;;
59014;SDS011;44799;53.382;14.666;2022-09-09T06:18:23;9.85;;;5.80;;
59014;SDS011;44799;53.382;14.666;2022-09-09T06:20:54;13.70;;;6.45;;
59014;SDS011;44799;53.382;14.666;2022-09-09T06:23:20;11.70;;;5.15;;
59014;SDS011;44799;53.382;14.666;2022-09-09T06:25:46;10.23;;;5.43;;
59014;SDS011;44799;53.382;14.666;2022-09-09T06:28:12;8.90;;;4.50;;
59014;SDS011;44799;53.382;14.666;2022-09-09T06:30:38;10.18;;;5.40;;
59014;SDS011;44799;53.382;14.666;2022-09-09T06:33:05;11.05;;;5.38;;
59014;SDS011;44799;53.382;14.666;2022-09-09T06:35:30;10.75;;;5.80;;
59014;SDS011;44799;53.382;14.666;2022-09-09T06:37:56;12.30;;;5.85;;
59014;SDS011;44799;53.382;14.666;2022-09-09T06:40:24;11.63;;;5.28;;
59014;SDS011;44799;53.382;14.666;2022-09-09T06:42:50;9.23;;;5.88;;
59014;SDS011;44799;53.382;14.666;2022-09-09T06:45:16;10.20;;;5.07;;
59014;SDS011;44799;53.382;14.666;2022-09-09T06:47:42;12.07;;;5.70;;
59014;SDS011;44799;53.382;14.666;2022-09-09T06:50:09;10.07;;;4.80;;
59014;SDS011;44799;53.382;14.666;2022-09-09T06:52:36;13.25;;;6.35;;
59014;SDS011;44799;53.382;14.666;2022-09-09T06:55:02;10.88;;;5.30;;
59014;SDS011;44799;53.382;14.666;2022-09-09T06:57:29;12.68;;;5.65;;
59014;SDS011;44799;53.382;14.666;2022-09-09T06:59:55;11.60;;;5.18;;
59014;SDS011;44799;53.382;14.666;2022-09-09T07:02:20;12.90;;;6.18;;
59014;SDS011;44799;53.382;14.666;2022-09-09T07:04:46;10.48;;;4.80;;
59014;SDS011;44799;53.382;14.666;2022-09-09T07:07:12;11.50;;;5.30;;
59014;SDS011;44799;53.382;14.666;2022-09-09T07:09:40;8.90;;;4.80;;
59014;SDS011;44799;53.382;14.666;2022-09-09T07:12:06;13.40;;;5.95;;
59014;SDS011;44799;53.382;14.666;2022-09-09T07:14:32;13.80;;;5.85;;
59014;SDS011;44799;53.382;14.666;2022-09-09T07:16:59;9.63;;;5.57;;
59014;SDS011;44799;53.382;14.666;2022-09-09T07:19:25;13.18;;;6.15;;
59014;SDS011;44799;53.382;14.666;2022-09-09T07:21:51;12.27;;;5.90;;
59014;SDS011;44799;53.382;14.666;2022-09-09T07:24:17;11.80;;;5.88;;
59014;SDS011;44799;53.382;14.666;2022-09-09T07:26:43;10.60;;;5.63;;
59014;SDS011;44799;53.382;14.666;2022-09-09T07:29:09;10.60;;;5.22;;
59014;SDS011;44799;53.382;14.666;2022-09-09T07:31:36;10.85;;;6.05;;
59014;SDS011;44799;53.382;14.666;2022-09-09T07:34:04;12.43;;;5.60;;
59014;SDS011;44799;53.382;14.666;2022-09-09T07:36:35;15.40;;;5.93;;
59014;SDS011;44799;53.382;14.666;2022-09-09T07:39:04;11.38;;;6.03;;
59014;SDS011;44799;53.382;14.666;2022-09-09T07:44:03;11.05;;;5.40;;
59014;SDS011;44799;53.382;14.666;2022-09-09T07:46:31;11.15;;;5.10;;
59014;SDS011;44799;53.382;14.666;2022-09-09T07:48:57;7.85;;;4.35;;
59014;SDS011;44799;53.382;14.666;2022-09-09T07:51:25;11.05;;;5.40;;
59014;SDS011;44799;53.382;14.666;2022-09-09T07:53:56;10.00;;;5.82;;
59014;SDS011;44799;53.382;14.666;2022-09-09T07:56:24;9.38;;;5.00;;
59014;SDS011;44799;53.382;14.666;2022-09-09T07:58:52;7.68;;;4.32;;
59014;SDS011;44799;53.382;14.666;2022-09-09T08:01:29;12.20;;;5.40;;
59014;SDS011;44799;53.382;14.666;2022-09-09T08:04:01;8.95;;;5.15;;
59014;SDS011;44799;53.382;14.666;2022-09-09T08:06:29;7.78;;;5.35;;
59014;SDS011;44799;53.382;14.666;2022-09-09T08:09:06;10.38;;;5.60;;
59014;SDS011;44799;53.382;14.666;2022-09-09T08:11:33;8.95;;;4.65;;
59014;SDS011;44799;53.382;14.666;2022-09-09T08:14:01;10.95;;;5.30;;
59014;SDS011;44799;53.382;14.666;2022-09-09T08:16:29;8.85;;;4.93;;
59014;SDS011;44799;53.382;14.666;2022-09-09T08:18:57;9.38;;;5.53;;
59014;SDS011;44799;53.382;14.666;2022-09-09T08:21:24;10.40;;;6.35;;
59014;SDS011;44799;53.382;14.666;2022-09-09T08:23:53;11.18;;;6.25;;
59014;SDS011;44799;53.382;14.666;2022-09-09T08:26:30;10.98;;;6.32;;
59014;SDS011;44799;53.382;14.666;2022-09-09T08:28:58;9.48;;;5.80;;
59014;SDS011;44799;53.382;14.666;2022-09-09T08:31:26;14.10;;;7.03;;
59014;SDS011;44799;53.382;14.666;2022-09-09T08:33:53;10.02;;;6.40;;
59014;SDS011;44799;53.382;14.666;2022-09-09T08:36:21;7.88;;;5.45;;
59014;SDS011;44799;53.382;14.666;2022-09-09T08:38:49;10.35;;;4.93;;
59014;SDS011;44799;53.382;14.666;2022-09-09T08:47:23;8.63;;;5.00;;
59014;SDS011;44799;53.382;14.666;2022-09-09T08:52:55;6.28;;;4.88;;
59014;SDS011;44799;53.382;14.666;2022-09-09T08:58:17;7.55;;;4.95;;
59014;SDS011;44799;53.382;14.666;2022-09-09T09:09:44;5.20;;;4.03;;
59014;SDS011;44799;53.382;14.666;2022-09-09T09:12:35;6.88;;;5.30;;
59014;SDS011;44799;53.382;14.666;2022-09-09T09:15:11;8.75;;;5.72;;
59014;SDS011;44799;53.382;14.666;2022-09-09T09:17:46;7.70;;;3.92;;
59014;SDS011;44799;53.382;14.666;2022-09-09T09:20:14;5.65;;;4.32;;
59014;SDS011;44799;53.382;14.666;2022-09-09T09:23:00;4.60;;;3.85;;
59014;SDS011;44799;53.382;14.666;2022-09-09T09:25:32;4.47;;;3.85;;
59014;SDS011;44799;53.382;14.666;2022-09-09T09:28:07;5.97;;;3.83;;
59014;SDS011;44799;53.382;14.666;2022-09-09T09:31:04;4.95;;;3.80;;
59014;SDS011;44799;53.382;14.666;2022-09-09T09:36:13;5.55;;;4.22;;
59014;SDS011;44799;53.382;14.666;2022-09-09T09:38:52;8.55;;;4.47;;
59014;SDS011;44799;53.382;14.666;2022-09-09T09:41:37;4.55;;;3.45;;
59014;SDS011;44799;53.382;14.666;2022-09-09T09:47:11;4.32;;;3.10;;
59014;SDS011;44799;53.382;14.666;2022-09-09T09:49:53;4.32;;;3.50;;
59014;SDS011;44799;53.382;14.666;2022-09-09T09:52:23;6.13;;;3.67;;
59014;SDS011;44799;53.382;14.666;2022-09-09T09:54:52;4.10;;;3.63;;
59014;SDS011;44799;53.382;14.666;2022-09-09T09:57:22;7.50;;;4.38;;
59014;SDS011;44799;53.382;14.666;2022-09-09T10:00:01;4.75;;;3.55;;
59014;SDS011;44799;53.382;14.666;2022-09-09T10:02:40;6.15;;;4.00;;
59014;SDS011;44799;53.382;14.666;2022-09-09T10:05:13;5.07;;;3.80;;
59014;SDS011;44799;53.382;14.666;2022-09-09T10:10:12;7.72;;;3.88;;
59014;SDS011;44799;53.382;14.666;2022-09-09T10:18:58;5.05;;;3.80;;
59014;SDS011;44799;53.382;14.666;2022-09-09T10:21:42;5.68;;;4.25;;
59014;SDS011;44799;53.382;14.666;2022-09-09T10:26:58;5.90;;;3.80;;
59014;SDS011;44799;53.382;14.666;2022-09-09T10:35:27;5.90;;;4.47;;
59014;SDS011;44799;53.382;14.666;2022-09-09T10:38:17;3.83;;;3.00;;
59014;SDS011;44799;53.382;14.666;2022-09-09T10:51:56;5.10;;;3.38;;
59014;SDS011;44799;53.382;14.666;2022-09-09T10:59:50;3.08;;;2.45;;
59014;SDS011;44799;53.382;14.666;2022-09-09T11:02:28;3.97;;;2.60;;
59014;SDS011;44799;53.382;14.666;2022-09-09T11:05:04;3.20;;;2.63;;
59014;SDS011;44799;53.382;14.666;2022-09-09T11:07:53;2.88;;;2.58;;
59014;SDS011;44799;53.382;14.666;2022-09-09T11:10:40;3.70;;;2.72;;
59014;SDS011;44799;53.382;14.666;2022-09-09T11:16:28;3.72;;;2.25;;
59014;SDS011;44799;53.382;14.666;2022-09-09T11:19:24;2.38;;;2.00;;
59014;SDS011;44799;53.382;14.666;2022-09-09T11:21:56;2.90;;;2.17;;
59014;SDS011;44799;53.382;14.666;2022-09-09T11:24:25;3.45;;;2.00;;
59014;SDS011;44799;53.382;14.666;2022-09-09T11:41:03;3.22;;;2.10;;
59014;SDS011;44799;53.382;14.666;2022-09-09T11:46:14;2.10;;;1.90;;
59014;SDS011;44799;53.382;14.666;2022-09-09T11:48:43;3.42;;;2.15;;
59014;SDS011;44799;53.382;14.666;2022-09-09T11:59:22;1.70;;;1.60;;
59014;SDS011;44799;53.382;14.666;2022-09-09T12:01:55;2.28;;;1.50;;
59014;SDS011;44799;53.382;14.666;2022-09-09T12:06:59;1.75;;;1.65;;
59014;SDS011;44799;53.382;14.666;2022-09-09T12:09:42;1.70;;;1.45;;
59014;SDS011;44799;53.382;14.666;2022-09-09T12:17:20;1.60;;;1.50;;
59014;SDS011;44799;53.382;14.666;2022-09-09T12:19:48;3.20;;;1.55;;
59014;SDS011;44799;53.382;14.666;2022-09-09T12:33:42;1.35;;;1.20;;
59014;SDS011;44799;53.382;14.666;2022-09-09T12:36:21;1.70;;;1.23;;
59014;SDS011;44799;53.382;14.666;2022-09-09T12:38:49;1.40;;;1.27;;
59014;SDS011;44799;53.382;14.666;2022-09-09T12:41:21;1.70;;;1.30;;
59014;SDS011;44799;53.382;14.666;2022-09-09T12:44:02;1.70;;;1.20;;
59014;SDS011;44799;53.382;14.666;2022-09-09T12:46:40;1.25;;;1.15;;
59014;SDS011;44799;53.382;14.666;2022-09-09T12:54:55;1.88;;;1.60;;
59014;SDS011;44799;53.382;14.666;2022-09-09T12:57:22;2.03;;;1.45;;
59014;SDS011;44799;53.382;14.666;2022-09-09T12:59:50;2.88;;;1.15;;
59014;SDS011;44799;53.382;14.666;2022-09-09T13:02:19;2.70;;;1.23;;
59014;SDS011;44799;53.382;14.666;2022-09-09T13:04:47;2.72;;;1.38;;
59014;SDS011;44799;53.382;14.666;2022-09-09T13:07:15;2.22;;;1.05;;
59014;SDS011;44799;53.382;14.666;2022-09-09T13:09:42;1.90;;;1.17;;
59014;SDS011;44799;53.382;14.666;2022-09-09T13:12:16;2.92;;;1.10;;
59014;SDS011;44799;53.382;14.666;2022-09-09T13:14:46;3.15;;;1.30;;
59014;SDS011;44799;53.382;14.666;2022-09-09T13:17:25;1.07;;;0.97;;
59014;SDS011;44799;53.382;14.666;2022-09-09T13:19:55;1.55;;;1.23;;
59014;SDS011;44799;53.382;14.666;2022-09-09T13:25:03;2.30;;;1.23;;
59014;SDS011;44799;53.382;14.666;2022-09-09T13:27:35;1.23;;;1.13;;
59014;SDS011;44799;53.382;14.666;2022-09-09T13:30:21;2.80;;;1.05;;
59014;SDS011;44799;53.382;14.666;2022-09-09T13:35:35;1.52;;;1.10;;
59014;SDS011;44799;53.382;14.666;2022-09-09T13:38:13;3.20;;;1.40;;
59014;SDS011;44799;53.382;14.666;2022-09-09T13:40:40;2.00;;;1.00;;
59014;SDS011;44799;53.382;14.666;2022-09-09T13:43:23;1.33;;;0.80;;
59014;SDS011;44799;53.382;14.666;2022-09-09T13:45:58;2.13;;;0.88;;
59014;SDS011;44799;53.382;14.666;2022-09-09T13:48:26;1.33;;;0.90;;
59014;SDS011;44799;53.382;14.666;2022-09-09T13:51:35;4.40;;;1.00;;
59014;SDS011;44799;53.382;14.666;2022-09-09T13:54:11;2.70;;;0.90;;
59014;SDS011;44799;53.382;14.666;2022-09-09T13:56:38;0.70;;;0.67;;
59014;SDS011;44799;53.382;14.666;2022-09-09T13:59:06;2.92;;;1.17;;
59014;SDS011;44799;53.382;14.666;2022-09-09T14:01:36;4.30;;;1.38;;
59014;SDS011;44799;53.382;14.666;2022-09-09T14:04:02;2.13;;;0.90;;
59014;SDS011;44799;53.382;14.666;2022-09-09T14:06:31;2.50;;;1.10;;
59014;SDS011;44799;53.382;14.666;2022-09-09T14:08:58;0.70;;;0.68;;
59014;SDS011;44799;53.382;14.666;2022-09-09T14:11:24;1.13;;;0.85;;
59014;SDS011;44799;53.382;14.666;2022-09-09T14:13:50;3.10;;;0.90;;
59014;SDS011;44799;53.382;14.666;2022-09-09T14:16:16;1.67;;;0.90;;
59014;SDS011;44799;53.382;14.666;2022-09-09T14:18:43;1.15;;;0.70;;
59014;SDS011;44799;53.382;14.666;2022-09-09T14:21:10;1.02;;;0.85;;
59014;SDS011;44799;53.382;14.666;2022-09-09T14:23:37;1.58;;;0.95;;
59014;SDS011;44799;53.382;14.666;2022-09-09T14:26:04;1.40;;;1.08;;
59014;SDS011;44799;53.382;14.666;2022-09-09T14:28:31;1.42;;;0.93;;
59014;SDS011;44799;53.382;14.666;2022-09-09T14:31:01;1.20;;;0.95;;
59014;SDS011;44799;53.382;14.666;2022-09-09T14:33:29;1.33;;;1.02;;
59014;SDS011;44799;53.382;14.666;2022-09-09T14:35:59;3.92;;;1.20;;
59014;SDS011;44799;53.382;14.666;2022-09-09T14:38:30;1.20;;;1.08;;
59014;SDS011;44799;53.382;14.666;2022-09-09T14:40:58;2.42;;;1.20;;
59014;SDS011;44799;53.382;14.666;2022-09-09T14:43:24;2.67;;;1.38;;
59014;SDS011;44799;53.382;14.666;2022-09-09T14:45:52;2.25;;;1.10;;
59014;SDS011;44799;53.382;14.666;2022-09-09T14:48:18;3.05;;;0.93;;
59014;SDS011;44799;53.382;14.666;2022-09-09T14:50:44;1.77;;;0.90;;
59014;SDS011;44799;53.382;14.666;2022-09-09T14:53:10;1.60;;;1.05;;
59014;SDS011;44799;53.382;14.666;2022-09-09T14:55:36;1.90;;;1.00;;
59014;SDS011;44799;53.382;14.666;2022-09-09T14:58:02;2.08;;;1.20;;
59014;SDS011;44799;53.382;14.666;2022-09-09T15:00:29;2.85;;;1.35;;
59014;SDS011;44799;53.382;14.666;2022-09-09T15:02:55;1.25;;;1.15;;
59014;SDS011;44799;53.382;14.666;2022-09-09T15:05:21;1.50;;;1.00;;
59014;SDS011;44799;53.382;14.666;2022-09-09T15:07:47;2.10;;;0.90;;
59014;SDS011;44799;53.382;14.666;2022-09-09T15:10:16;3.00;;;0.93;;
59014;SDS011;44799;53.382;14.666;2022-09-09T15:12:45;0.77;;;0.70;;
59014;SDS011;44799;53.382;14.666;2022-09-09T15:15:11;5.13;;;1.15;;
59014;SDS011;44799;53.382;14.666;2022-09-09T15:17:37;1.30;;;0.52;;
59014;SDS011;44799;53.382;14.666;2022-09-09T15:20:03;1.58;;;0.80;;
59014;SDS011;44799;53.382;14.666;2022-09-09T15:22:31;1.20;;;0.80;;
59014;SDS011;44799;53.382;14.666;2022-09-09T15:24:57;1.70;;;0.95;;
59014;SDS011;44799;53.382;14.666;2022-09-09T15:27:23;2.30;;;0.80;;
59014;SDS011;44799;53.382;14.666;2022-09-09T15:29:49;1.15;;;0.90;;
59014;SDS011;44799;53.382;14.666;2022-09-09T15:32:16;1.42;;;0.90;;
59014;SDS011;44799;53.382;14.666;2022-09-09T15:34:43;1.23;;;0.80;;
59014;SDS011;44799;53.382;14.666;2022-09-09T15:37:12;0.73;;;0.65;;
59014;SDS011;44799;53.382;14.666;2022-09-09T15:39:38;1.08;;;0.70;;
59014;SDS011;44799;53.382;14.666;2022-09-09T15:42:06;2.83;;;0.85;;
59014;SDS011;44799;53.382;14.666;2022-09-09T15:44:51;3.03;;;0.82;;
59014;SDS011;44799;53.382;14.666;2022-09-09T15:47:17;2.50;;;1.40;;
59014;SDS011;44799;53.382;14.666;2022-09-09T15:49:43;1.60;;;0.73;;
59014;SDS011;44799;53.382;14.666;2022-09-09T15:52:09;1.27;;;0.90;;
59014;SDS011;44799;53.382;14.666;2022-09-09T15:54:36;1.10;;;1.00;;
59014;SDS011;44799;53.382;14.666;2022-09-09T15:57:04;2.17;;;1.00;;
59014;SDS011;44799;53.382;14.666;2022-09-09T15:59:32;1.55;;;0.73;;
59014;SDS011;44799;53.382;14.666;2022-09-09T16:01:59;4.38;;;1.33;;
59014;SDS011;44799;53.382;14.666;2022-09-09T16:04:26;3.25;;;0.93;;
59014;SDS011;44799;53.382;14.666;2022-09-09T16:06:58;3.03;;;1.42;;
59014;SDS011;44799;53.382;14.666;2022-09-09T16:09:26;1.02;;;1.00;;
59014;SDS011;44799;53.382;14.666;2022-09-09T16:11:55;1.30;;;1.20;;
59014;SDS011;44799;53.382;14.666;2022-09-09T16:14:23;3.60;;;1.10;;
59014;SDS011;44799;53.382;14.666;2022-09-09T16:16:50;1.83;;;1.02;;
59014;SDS011;44799;53.382;14.666;2022-09-09T16:19:17;3.42;;;1.30;;
59014;SDS011;44799;53.382;14.666;2022-09-09T16:21:48;1.67;;;1.00;;
59014;SDS011;44799;53.382;14.666;2022-09-09T16:24:16;2.28;;;1.10;;
59014;SDS011;44799;53.382;14.666;2022-09-09T16:26:44;1.30;;;1.00;;
59014;SDS011;44799;53.382;14.666;2022-09-09T16:29:12;1.50;;;0.90;;
59014;SDS011;44799;53.382;14.666;2022-09-09T16:31:39;4.30;;;1.30;;
59014;SDS011;44799;53.382;14.666;2022-09-09T16:34:06;1.08;;;0.80;;
59014;SDS011;44799;53.382;14.666;2022-09-09T16:36:33;1.35;;;0.90;;
59014;SDS011;44799;53.382;14.666;2022-09-09T16:39:02;1.52;;;1.05;;
59014;SDS011;44799;53.382;14.666;2022-09-09T16:41:30;2.55;;;1.02;;
59014;SDS011;44799;53.382;14.666;2022-09-09T16:44:00;2.50;;;1.00;;
59014;SDS011;44799;53.382;14.666;2022-09-09T16:46:31;2.72;;;1.20;;
59014;SDS011;44799;53.382;14.666;2022-09-09T16:49:00;2.28;;;1.17;;
59014;SDS011;44799;53.382;14.666;2022-09-09T16:51:28;2.13;;;1.20;;
59014;SDS011;44799;53.382;14.666;2022-09-09T16:53:58;2.10;;;1.35;;
59014;SDS011;44799;53.382;14.666;2022-09-09T16:56:26;1.48;;;1.15;;
59014;SDS011;44799;53.382;14.666;2022-09-09T16:58:56;3.25;;;1.67;;
59014;SDS011;44799;53.382;14.666;2022-09-09T17:01:28;3.40;;;1.63;;
59014;SDS011;44799;53.382;14.666;2022-09-09T17:03:57;4.50;;;1.98;;
59014;SDS011;44799;53.382;14.666;2022-09-09T17:06:28;2.90;;;1.73;;
59014;SDS011;44799;53.382;14.666;2022-09-09T17:08:55;2.95;;;1.70;;
59014;SDS011;44799;53.382;14.666;2022-09-09T17:11:22;4.68;;;1.65;;
59014;SDS011;44799;53.382;14.666;2022-09-09T17:13:49;3.15;;;1.55;;
59014;SDS011;44799;53.382;14.666;2022-09-09T17:16:16;3.38;;;2.03;;
59014;SDS011;44799;53.382;14.666;2022-09-09T17:18:43;5.75;;;2.63;;
59014;SDS011;44799;53.382;14.666;2022-09-09T17:21:14;5.47;;;2.20;;
59014;SDS011;44799;53.382;14.666;2022-09-09T17:23:43;9.15;;;2.83;;
59014;SDS011;44799;53.382;14.666;2022-09-09T17:26:11;6.28;;;3.25;;
59014;SDS011;44799;53.382;14.666;2022-09-09T17:28:39;6.78;;;2.63;;
59014;SDS011;44799;53.382;14.666;2022-09-09T17:31:07;6.50;;;2.70;;
59014;SDS011;44799;53.382;14.666;2022-09-09T17:33:37;5.00;;;2.15;;
59014;SDS011;44799;53.382;14.666;2022-09-09T17:38:40;2.13;;;1.80;;
59014;SDS011;44799;53.382;14.666;2022-09-09T17:43:44;2.45;;;1.95;;